Time;durP1;ratioP1;P1;durP2;ratioP2;P2;SDS_P1;SDS_P2;PMS_P1;PMS_P2;Temp;Humidity;BMP_temperature;BMP_pressure;BME280_temperature;BME280_humidity;BME280_pressure;Samples;Min_cycle;Max_cycle;Signal;HPM_P1;HPM_P2
2022/08/12 00:43:03;;;;;;;3.42;0.90;;;;;;;;;;4856494;29;20080;-72
2022/08/12 00:46:29;;;;;;;1.63;0.57;;;;;;;;;;4855797;29;20068;-72
2022/08/12 00:48:23;;;;;;;0.98;0.60;;;;;;;;;;4857032;29;20050;-72
2022/08/12 00:50:57;;;;;;;2.65;0.43;;;;;;;;;;4856899;29;20049;-71
2022/08/12 00:53:29;;;;;;;1.65;0.50;;;;;;;;;;4856024;29;20049;-71
2022/08/12 00:56:01;;;;;;;0.50;0.45;;;;;;;;;;4855170;29;20639;-71
2022/08/12 00:58:31;;;;;;;2.25;0.40;;;;;;;;;;4856456;29;20518;-71
2022/08/12 01:01:07;;;;;;;2.45;0.90;;;;;;;;;;4856223;29;20524;-70
2022/08/12 01:12:10;;;;;;;0.45;0.40;;;;;;;;;;4855946;29;20048;-70
2022/08/12 01:14:42;;;;;;;1.75;0.47;;;;;;;;;;4857013;29;20045;-72
2022/08/12 01:17:12;;;;;;;2.03;0.70;;;;;;;;;;4853611;29;20481;-69
2022/08/12 01:19:46;;;;;;;2.55;0.77;;;;;;;;;;4852641;29;20394;-69
2022/08/12 01:22:24;;;;;;;1.17;0.63;;;;;;;;;;4854252;29;20058;-70
2022/08/12 01:24:59;;;;;;;1.27;0.60;;;;;;;;;;4853798;29;20077;-70
2022/08/12 01:27:33;;;;;;;4.72;0.73;;;;;;;;;;4853663;29;20052;-70
2022/08/12 01:30:06;;;;;;;1.95;0.80;;;;;;;;;;4853854;29;20057;-70
2022/08/12 01:32:40;;;;;;;1.27;0.57;;;;;;;;;;4855256;29;20060;-71
2022/08/12 01:35:14;;;;;;;1.58;0.60;;;;;;;;;;4855679;29;20655;-71
2022/08/12 01:37:54;;;;;;;0.75;0.40;;;;;;;;;;4855861;29;20485;-72
2022/08/12 01:40:29;;;;;;;2.90;0.50;;;;;;;;;;4855407;29;20410;-71
2022/08/12 01:43:08;;;;;;;3.22;0.90;;;;;;;;;;4855385;29;20057;-71
2022/08/12 01:45:51;;;;;;;2.13;0.75;;;;;;;;;;4855141;29;20045;-71
2022/08/12 01:48:50;;;;;;;4.05;0.57;;;;;;;;;;4855691;29;20502;-71
2022/08/12 01:51:30;;;;;;;2.60;0.52;;;;;;;;;;4854312;29;20050;-72
2022/08/12 01:54:21;;;;;;;4.57;0.68;;;;;;;;;;4855326;29;20057;-71
2022/08/12 01:57:06;;;;;;;4.22;0.60;;;;;;;;;;4854250;29;20045;-72
2022/08/12 01:59:58;;;;;;;2.05;0.32;;;;;;;;;;4853227;29;20065;-71
2022/08/12 02:02:58;;;;;;;2.10;0.50;;;;;;;;;;4855885;29;20065;-72
2022/08/12 02:12:05;;;;;;;3.30;0.38;;;;;;;;;;4854796;29;20056;-71
2022/08/12 02:14:50;;;;;;;0.68;0.50;;;;;;;;;;4855436;29;20501;-70
2022/08/12 02:17:59;;;;;;;1.83;0.40;;;;;;;;;;4854499;29;20042;-71
2022/08/12 02:20:43;;;;;;;1.70;0.43;;;;;;;;;;4855249;29;20067;-72
2022/08/12 02:23:25;;;;;;;1.80;0.55;;;;;;;;;;4854734;29;20053;-72
2022/08/12 02:26:02;;;;;;;2.60;0.57;;;;;;;;;;4854977;29;20045;-72
2022/08/12 02:28:33;;;;;;;1.40;0.50;;;;;;;;;;4854574;29;20064;-70
2022/08/12 02:31:07;;;;;;;0.55;0.40;;;;;;;;;;4854777;29;20053;-71
2022/08/12 02:33:38;;;;;;;1.33;0.68;;;;;;;;;;4854533;29;20180;-72
2022/08/12 02:36:08;;;;;;;1.83;0.47;;;;;;;;;;4854335;29;20054;-72
2022/08/12 02:38:42;;;;;;;2.13;0.60;;;;;;;;;;4854476;29;20057;-71
2022/08/12 02:41:18;;;;;;;2.13;0.50;;;;;;;;;;4853725;29;20057;-71
2022/08/12 02:43:52;;;;;;;3.75;0.73;;;;;;;;;;4854795;29;20052;-72
2022/08/12 02:46:29;;;;;;;3.90;0.55;;;;;;;;;;4854501;29;20612;-71
2022/08/12 02:49:13;;;;;;;1.30;0.68;;;;;;;;;;4854573;29;20060;-71
2022/08/12 02:51:44;;;;;;;1.73;0.55;;;;;;;;;;4854583;29;20045;-70
2022/08/12 02:54:14;;;;;;;2.67;0.60;;;;;;;;;;4854966;29;20058;-70
2022/08/12 02:56:44;;;;;;;3.63;0.55;;;;;;;;;;4854419;29;20060;-71
2022/08/12 02:59:22;;;;;;;2.45;0.80;;;;;;;;;;4854242;29;20057;-71
2022/08/12 03:02:03;;;;;;;4.45;0.63;;;;;;;;;;4854547;29;20064;-71
2022/08/12 03:04:55;;;;;;;2.47;0.80;;;;;;;;;;4854431;29;20054;-72
2022/08/12 03:07:25;;;;;;;1.48;0.60;;;;;;;;;;4854231;29;20517;-70
2022/08/12 03:10:19;;;;;;;2.63;0.43;;;;;;;;;;4860485;29;20076;-71
2022/08/12 03:13:09;;;;;;;1.25;0.70;;;;;;;;;;4860847;29;20045;-72
2022/08/12 03:15:39;;;;;;;1.50;0.45;;;;;;;;;;4860453;29;20060;-72
2022/08/12 03:18:14;;;;;;;0.75;0.43;;;;;;;;;;4860525;29;20119;-72
2022/08/12 03:20:59;;;;;;;0.73;0.50;;;;;;;;;;4860361;29;20068;-72
2022/08/12 03:23:29;;;;;;;0.98;0.57;;;;;;;;;;4860845;29;20052;-71
2022/08/12 03:26:01;;;;;;;1.40;0.60;;;;;;;;;;4860701;29;20072;-71
2022/08/12 03:31:31;;;;;;;0.95;0.40;;;;;;;;;;4860124;29;20045;-72
2022/08/12 03:34:06;;;;;;;2.45;0.52;;;;;;;;;;4859982;29;20053;-72
2022/08/12 03:36:40;;;;;;;1.40;0.57;;;;;;;;;;4859934;29;20060;-71
2022/08/12 03:41:59;;;;;;;1.55;0.45;;;;;;;;;;4860429;29;20058;-72
2022/08/12 04:02:16;;;;;;;1.13;0.60;;;;;;;;;;4860204;29;20054;-72
2022/08/12 04:04:47;;;;;;;0.98;0.60;;;;;;;;;;4860020;29;20056;-72
2022/08/12 04:07:18;;;;;;;4.25;0.70;;;;;;;;;;4860188;29;20053;-70
2022/08/12 04:09:48;;;;;;;2.40;0.60;;;;;;;;;;4859660;29;20459;-71
2022/08/12 04:15:11;;;;;;;1.98;0.50;;;;;;;;;;4859993;29;20061;-72
2022/08/12 04:17:42;;;;;;;2.88;0.60;;;;;;;;;;4859524;29;20060;-72
2022/08/12 04:20:32;;;;;;;3.78;0.70;;;;;;;;;;4857390;29;20054;-71
2022/08/12 04:23:04;;;;;;;0.90;0.50;;;;;;;;;;4856913;29;20056;-71
2022/08/12 04:25:38;;;;;;;2.65;0.65;;;;;;;;;;4857084;29;20054;-72
2022/08/12 04:28:09;;;;;;;1.75;0.50;;;;;;;;;;4857024;29;20088;-70
2022/08/12 04:30:42;;;;;;;3.10;0.57;;;;;;;;;;4856652;29;20056;-71
2022/08/12 04:33:12;;;;;;;;;;;;;;;;;;4857761;29;20069;-70
2022/08/12 04:35:42;;;;;;;2.15;0.40;;;;;;;;;;4857122;29;19924;-71
2022/08/12 04:38:12;;;;;;;2.17;0.50;;;;;;;;;;4856874;29;20049;-71
2022/08/12 04:40:45;;;;;;;3.20;0.43;;;;;;;;;;4856433;29;20053;-71
2022/08/12 04:43:16;;;;;;;3.42;0.60;;;;;;;;;;4856933;29;20053;-72
2022/08/12 04:46:07;;;;;;;5.43;0.80;;;;;;;;;;4856729;29;20058;-72
2022/08/12 04:48:37;;;;;;;3.60;0.88;;;;;;;;;;4856267;29;20053;-71
2022/08/12 04:51:07;;;;;;;2.75;0.60;;;;;;;;;;4855971;29;20049;-70
2022/08/12 04:53:39;;;;;;;1.52;0.65;;;;;;;;;;4856744;29;20540;-71
2022/08/12 04:56:12;;;;;;;3.28;0.52;;;;;;;;;;4856970;29;20064;-71
2022/08/12 04:58:42;;;;;;;1.80;0.77;;;;;;;;;;4856603;29;20072;-71
2022/08/12 05:01:17;;;;;;;4.13;0.60;;;;;;;;;;4855441;29;20064;-72
2022/08/12 05:03:48;;;;;;;;;;;;;;;;;;4857197;29;20053;-71
2022/08/12 05:06:17;;;;;;;2.03;0.47;;;;;;;;;;4855911;29;19932;-72
2022/08/12 05:08:58;;;;;;;3.88;0.68;;;;;;;;;;4856686;29;20057;-71
2022/08/12 05:11:29;;;;;;;2.35;0.70;;;;;;;;;;4856329;29;20406;-72
2022/08/12 05:14:00;;;;;;;2.72;0.70;;;;;;;;;;4856546;29;20441;-71
2022/08/12 05:16:31;;;;;;;3.15;0.50;;;;;;;;;;4856205;29;20053;-72
2022/08/12 05:19:04;;;;;;;2.10;0.60;;;;;;;;;;4856538;29;20057;-72
2022/08/12 05:21:46;;;;;;;2.75;0.73;;;;;;;;;;4855859;29;20050;-71
2022/08/12 05:24:17;;;;;;;0.52;0.52;;;;;;;;;;4856000;29;20054;-71
2022/08/12 05:26:47;;;;;;;0.73;0.70;;;;;;;;;;4856377;29;20049;-72
2022/08/12 05:29:16;;;;;;;2.13;0.73;;;;;;;;;;4855507;29;20049;-71
2022/08/12 05:32:10;;;;;;;3.35;0.70;;;;;;;;;;4856202;29;20049;-71
2022/08/12 05:34:40;;;;;;;1.20;0.60;;;;;;;;;;4854353;29;20065;-73
2022/08/12 05:37:10;;;;;;;4.05;0.93;;;;;;;;;;4856166;29;20060;-71
2022/08/12 05:39:40;;;;;;;1.15;0.60;;;;;;;;;;4855661;29;20054;-73
2022/08/12 05:42:10;;;;;;;1.83;0.65;;;;;;;;;;4855510;29;20057;-71
2022/08/12 05:44:40;;;;;;;0.73;0.57;;;;;;;;;;4855639;29;20054;-72
2022/08/12 05:47:13;;;;;;;1.27;0.63;;;;;;;;;;4854590;29;20045;-73
2022/08/12 05:49:44;;;;;;;0.60;0.60;;;;;;;;;;4856200;29;20064;-72
2022/08/12 05:52:14;;;;;;;5.03;0.80;;;;;;;;;;4855237;29;20065;-72
2022/08/12 05:54:47;;;;;;;0.70;0.57;;;;;;;;;;4855248;29;20627;-72
2022/08/12 05:57:25;;;;;;;1.00;0.52;;;;;;;;;;4855705;29;20053;-71
2022/08/12 05:59:55;;;;;;;1.30;0.65;;;;;;;;;;4855199;29;20053;-72
2022/08/12 06:02:25;;;;;;;2.47;0.70;;;;;;;;;;4855258;29;20538;-71
2022/08/12 06:04:59;;;;;;;4.82;0.90;;;;;;;;;;4855346;29;20053;-72
2022/08/12 06:07:30;;;;;;;2.47;0.82;;;;;;;;;;4855084;29;20053;-72
2022/08/12 06:10:20;;;;;;;2.90;0.70;;;;;;;;;;4855788;29;20076;-71
2022/08/12 06:13:01;;;;;;;6.15;0.70;;;;;;;;;;4855375;29;20057;-72
2022/08/12 06:15:34;;;;;;;4.90;1.10;;;;;;;;;;4854863;29;20058;-71
2022/08/12 06:18:07;;;;;;;4.15;0.70;;;;;;;;;;4854441;29;20049;-71
2022/08/12 06:20:51;;;;;;;3.38;0.60;;;;;;;;;;4854303;29;20053;-72
2022/08/12 06:23:27;;;;;;;2.15;0.77;;;;;;;;;;4854710;29;20053;-71
2022/08/12 06:25:58;;;;;;;2.85;0.60;;;;;;;;;;4854645;29;20048;-72
2022/08/12 06:28:29;;;;;;;3.72;0.70;;;;;;;;;;4855358;29;20049;-70
2022/08/12 06:31:00;;;;;;;0.70;0.63;;;;;;;;;;4854657;29;20054;-72
2022/08/12 06:33:50;;;;;;;3.47;0.70;;;;;;;;;;4854594;29;20076;-71
2022/08/12 06:36:29;;;;;;;1.40;0.70;;;;;;;;;;4854255;29;20061;-73
2022/08/12 06:39:01;;;;;;;3.42;0.93;;;;;;;;;;4854741;29;20052;-72
2022/08/12 06:44:39;;;;;;;0.95;0.63;;;;;;;;;;4854430;29;20041;-73
2022/08/12 06:47:09;;;;;;;1.63;0.60;;;;;;;;;;4854684;29;20417;-72
2022/08/12 06:49:39;;;;;;;1.63;0.73;;;;;;;;;;4854660;29;20425;-72
2022/08/12 06:52:08;;;;;;;;;;;;;;;;;;4854751;29;20057;-71
2022/08/12 06:54:40;;;;;;;3.75;0.85;;;;;;;;;;4854218;29;19931;-72
2022/08/12 06:57:10;;;;;;;2.65;0.65;;;;;;;;;;4854645;29;20052;-71
2022/08/12 07:00:00;;;;;;;0.80;0.68;;;;;;;;;;4854691;29;20060;-72
2022/08/12 07:02:29;;;;;;;5.40;0.77;;;;;;;;;;4854497;29;20057;-72
2022/08/12 07:05:05;;;;;;;3.17;0.90;;;;;;;;;;4854278;29;20053;-72
2022/08/12 07:07:37;;;;;;;3.47;0.70;;;;;;;;;;4854296;29;20053;-69
2022/08/12 07:10:08;;;;;;;1.58;0.70;;;;;;;;;;4853964;29;20056;-71
2022/08/12 07:12:37;;;;;;;4.38;0.70;;;;;;;;;;4854486;29;20053;-72
2022/08/12 07:15:08;;;;;;;3.08;0.70;;;;;;;;;;4855045;29;20064;-72
2022/08/12 07:17:40;;;;;;;4.95;0.80;;;;;;;;;;4854557;29;20060;-71
2022/08/12 07:20:10;;;;;;;1.17;0.60;;;;;;;;;;4854781;29;20631;-73
2022/08/12 07:23:04;;;;;;;1.85;0.65;;;;;;;;;;4853016;29;20413;-71
2022/08/12 07:25:35;;;;;;;1.73;0.73;;;;;;;;;;4854346;29;20512;-71
2022/08/12 07:28:13;;;;;;;6.72;0.90;;;;;;;;;;4854161;29;20054;-71
2022/08/12 07:30:50;;;;;;;1.73;0.60;;;;;;;;;;4854266;29;20736;-72
2022/08/12 07:33:22;;;;;;;3.55;0.85;;;;;;;;;;4853947;29;20054;-72
2022/08/12 07:35:53;;;;;;;1.70;0.60;;;;;;;;;;4854101;29;20049;-71
2022/08/12 07:38:36;;;;;;;3.17;0.70;;;;;;;;;;4854504;29;20053;-71
2022/08/12 07:41:12;;;;;;;3.03;0.52;;;;;;;;;;4853784;29;20046;-72
2022/08/12 07:43:49;;;;;;;1.75;0.80;;;;;;;;;;4853893;29;20056;-73
2022/08/12 07:46:31;;;;;;;1.08;0.65;;;;;;;;;;4853867;29;20053;-71
2022/08/12 07:49:04;;;;;;;6.00;0.95;;;;;;;;;;4853662;29;20064;-72
2022/08/12 07:51:35;;;;;;;1.02;0.70;;;;;;;;;;4854332;29;20045;-71
2022/08/12 07:54:10;;;;;;;3.75;0.80;;;;;;;;;;4853986;29;20057;-73
2022/08/12 07:56:42;;;;;;;4.63;0.90;;;;;;;;;;4856903;29;20041;-73
2022/08/12 07:59:12;;;;;;;2.10;0.82;;;;;;;;;;4857671;29;20526;-70
2022/08/12 08:01:42;;;;;;;;;;;;;;;;;;4858402;29;20524;-73
2022/08/12 08:07:00;;;;;;;3.40;0.77;;;;;;;;;;4856803;29;20068;-71
2022/08/12 08:09:30;;;;;;;4.03;0.70;;;;;;;;;;4856877;29;20057;-71
2022/08/12 08:14:54;;;;;;;2.55;0.88;;;;;;;;;;4857435;29;20064;-72
2022/08/12 08:17:25;;;;;;;1.90;0.80;;;;;;;;;;4857156;29;20391;-72
2022/08/12 08:19:55;;;;;;;3.50;1.02;;;;;;;;;;4857313;29;20054;-71
2022/08/12 08:22:39;;;;;;;2.70;0.70;;;;;;;;;;4857099;29;20054;-71
2022/08/12 08:25:12;;;;;;;9.60;0.88;;;;;;;;;;4857322;29;20049;-72
2022/08/12 08:28:12;;;;;;;2.13;0.70;;;;;;;;;;4857275;29;20125;-72
2022/08/12 08:30:44;;;;;;;4.35;0.70;;;;;;;;;;4856478;29;20060;-70
2022/08/12 08:33:15;;;;;;;3.80;0.80;;;;;;;;;;4856513;29;20409;-71
2022/08/12 08:35:52;;;;;;;0.95;0.73;;;;;;;;;;4856630;29;20038;-72
2022/08/12 08:38:21;;;;;;;;;;;;;;;;;;4857255;29;20053;-72
2022/08/12 08:44:15;;;;;;;4.15;0.60;;;;;;;;;;4856605;29;20053;-72
2022/08/12 08:46:45;;;;;;;1.77;0.63;;;;;;;;;;4856783;29;20076;-73
2022/08/12 08:49:16;;;;;;;0.90;0.60;;;;;;;;;;4856593;29;20065;-73
2022/08/12 08:51:46;;;;;;;0.70;0.60;;;;;;;;;;4856678;29;20414;-72
2022/08/12 08:54:16;;;;;;;2.72;0.57;;;;;;;;;;4856556;29;20417;-70
2022/08/12 08:56:49;;;;;;;1.65;0.82;;;;;;;;;;4856565;29;20049;-72
2022/08/12 08:59:21;;;;;;;2.10;0.40;;;;;;;;;;4856482;29;20532;-73
2022/08/12 09:01:51;;;;;;;2.45;0.73;;;;;;;;;;4855817;29;20057;-70
2022/08/12 09:04:22;;;;;;;1.08;0.60;;;;;;;;;;4856250;29;20053;-70
2022/08/12 09:07:16;;;;;;;2.85;0.60;;;;;;;;;;4855305;29;20466;-73
2022/08/12 09:10:07;;;;;;;2.00;0.77;;;;;;;;;;4855586;29;20065;-72
2022/08/12 09:16:05;;;;;;;1.52;0.73;;;;;;;;;;4855890;29;20057;-72
2022/08/12 09:18:36;;;;;;;7.15;1.20;;;;;;;;;;4856178;29;20498;-71
2022/08/12 09:21:12;;;;;;;7.20;1.15;;;;;;;;;;4854677;29;20060;-71
2022/08/12 09:23:42;;;;;;;4.70;1.00;;;;;;;;;;4855674;29;20046;-72
2022/08/12 09:26:30;;;;;;;3.80;0.75;;;;;;;;;;4855177;29;20069;-71
2022/08/12 09:29:06;;;;;;;4.38;1.00;;;;;;;;;;4856933;29;20108;-72
2022/08/12 09:31:41;;;;;;;4.97;0.80;;;;;;;;;;4856064;29;20056;-70
2022/08/12 09:34:32;;;;;;;0.95;0.70;;;;;;;;;;4856599;29;20048;-72
2022/08/12 09:37:11;;;;;;;1.25;0.70;;;;;;;;;;4855469;29;20049;-72
2022/08/12 09:39:52;;;;;;;4.18;0.82;;;;;;;;;;4856071;29;20061;-73
2022/08/12 09:45:48;;;;;;;2.35;0.75;;;;;;;;;;4855718;29;20053;-71
2022/08/12 09:48:38;;;;;;;1.00;0.70;;;;;;;;;;4854741;29;20064;-72
2022/08/12 09:51:25;;;;;;;3.88;0.75;;;;;;;;;;4855451;29;20049;-72
2022/08/12 09:54:11;;;;;;;4.63;2.10;;;;;;;;;;4855694;29;20057;-72
2022/08/12 09:57:10;;;;;;;8.73;1.70;;;;;;;;;;4855231;29;20451;-71
2022/08/12 10:00:00;;;;;;;3.90;0.98;;;;;;;;;;4855609;29;20065;-72
2022/08/12 10:03:07;;;;;;;3.92;1.10;;;;;;;;;;4856657;29;20053;-70
2022/08/12 10:06:01;;;;;;;3.22;0.90;;;;;;;;;;4855541;29;20060;-72
2022/08/12 10:08:51;;;;;;;1.38;0.98;;;;;;;;;;4855831;29;20387;-72
2022/08/12 10:14:30;;;;;;;3.13;0.70;;;;;;;;;;4855090;29;20529;-71
2022/08/12 10:17:05;;;;;;;2.05;1.27;;;;;;;;;;4853821;29;20077;-71
2022/08/12 10:19:38;;;;;;;11.70;2.53;;;;;;;;;;4854364;29;20049;-72
2022/08/12 10:22:20;;;;;;;4.63;1.83;;;;;;;;;;4854579;29;20496;-73
2022/08/12 10:31:08;;;;;;;7.22;1.55;;;;;;;;;;4854863;29;20676;-70
2022/08/12 10:33:45;;;;;;;4.22;1.58;;;;;;;;;;4855361;29;20049;-72
2022/08/12 10:36:37;;;;;;;5.30;2.22;;;;;;;;;;4854667;29;20402;-72
2022/08/12 10:39:13;;;;;;;7.57;3.50;;;;;;;;;;4854119;29;20053;-70
2022/08/12 10:45:08;;;;;;;12.70;2.10;;;;;;;;;;4854302;29;20057;-70
2022/08/12 10:47:47;;;;;;;6.82;2.85;;;;;;;;;;4854647;29;20057;-72
2022/08/12 10:50:40;;;;;;;11.98;3.20;;;;;;;;;;4853881;29;20053;-71
2022/08/12 10:53:32;;;;;;;6.65;3.10;;;;;;;;;;4854607;29;20054;-71
2022/08/12 10:56:17;;;;;;;5.72;2.83;;;;;;;;;;4854455;29;20065;-75
2022/08/12 10:58:49;;;;;;;9.73;3.20;;;;;;;;;;4854432;29;20057;-71
2022/08/12 11:01:19;;;;;;;5.38;2.22;;;;;;;;;;4854278;29;20429;-71
2022/08/12 11:04:15;;;;;;;4.03;2.42;;;;;;;;;;4854441;29;20418;-71
2022/08/12 11:07:05;;;;;;;6.65;1.95;;;;;;;;;;4854037;29;20049;-71
2022/08/12 11:09:57;;;;;;;3.05;1.83;;;;;;;;;;4854256;29;20061;-72
2022/08/12 11:12:31;;;;;;;5.85;2.05;;;;;;;;;;4853748;29;20057;-74
2022/08/12 11:15:22;;;;;;;2.78;2.00;;;;;;;;;;4854376;29;20053;-73
2022/08/12 11:18:12;;;;;;;7.93;2.72;;;;;;;;;;4853802;29;20096;-72
2022/08/12 11:20:47;;;;;;;17.55;7.93;;;;;;;;;;4853949;29;20049;-70
2022/08/12 11:23:21;;;;;;;4.18;1.90;;;;;;;;;;4853599;29;20057;-70
2022/08/12 11:26:05;;;;;;;4.30;2.22;;;;;;;;;;4854067;29;20500;-71
2022/08/12 11:28:36;;;;;;;3.20;2.03;;;;;;;;;;4854598;29;20054;-72
2022/08/12 11:31:08;;;;;;;4.72;2.03;;;;;;;;;;4858139;29;20478;-74
2022/08/12 11:33:43;;;;;;;6.32;1.70;;;;;;;;;;4857620;29;20037;-74
2022/08/12 11:36:33;;;;;;;19.63;3.95;;;;;;;;;;4857983;29;20064;-73
2022/08/12 11:39:08;;;;;;;;;;;;;;;;;;4858109;29;20054;-74
2022/08/12 11:41:40;;;;;;;4.40;1.95;;;;;;;;;;4857475;29;20304;-74
2022/08/12 11:44:10;;;;;;;8.23;2.00;;;;;;;;;;4857626;29;20046;-73
2022/08/12 11:47:01;;;;;;;4.10;2.63;;;;;;;;;;4858105;29;20402;-77
2022/08/12 11:49:37;;;;;;;6.68;1.90;;;;;;;;;;4857974;29;20053;-74
2022/08/12 11:52:07;;;;;;;4.47;2.05;;;;;;;;;;4856715;29;20064;-74
2022/08/12 11:54:57;;;;;;;5.55;1.67;;;;;;;;;;4856741;29;20533;-75
2022/08/12 11:57:27;;;;;;;6.72;1.80;;;;;;;;;;4856199;29;20069;-72
2022/08/12 12:00:20;;;;;;;6.05;1.50;;;;;;;;;;4857436;29;20061;-72
2022/08/12 12:03:10;;;;;;;3.72;1.80;;;;;;;;;;4856520;29;20066;-73
2022/08/12 12:05:45;;;;;;;2.13;1.02;;;;;;;;;;4857988;29;20072;-74
2022/08/12 12:08:23;;;;;;;3.00;0.93;;;;;;;;;;4857543;29;20052;-74
2022/08/12 12:11:11;;;;;;;2.00;0.73;;;;;;;;;;4855826;29;20061;-75
2022/08/12 12:13:41;;;;;;;3.10;1.00;;;;;;;;;;4857512;29;20061;-74
2022/08/12 12:16:31;;;;;;;4.50;1.42;;;;;;;;;;4856642;29;20470;-78
2022/08/12 12:19:07;;;;;;;4.60;1.77;;;;;;;;;;4857398;29;20045;-75
2022/08/12 12:21:38;;;;;;;5.05;1.75;;;;;;;;;;4857648;29;20073;-75
2022/08/12 12:24:17;;;;;;;3.42;1.60;;;;;;;;;;4855984;29;20053;-74
2022/08/12 12:26:52;;;;;;;3.03;1.27;;;;;;;;;;4857301;29;20057;-75
2022/08/12 12:29:30;;;;;;;6.68;1.05;;;;;;;;;;4856886;29;20053;-74
2022/08/12 12:32:20;;;;;;;9.55;2.40;;;;;;;;;;4857048;29;20057;-75
2022/08/12 12:34:57;;;;;;;9.13;1.50;;;;;;;;;;4856852;29;20050;-74
2022/08/12 12:38:01;;;;;;;2.92;2.17;;;;;;;;;;4856709;29;20049;-75
2022/08/12 12:40:45;;;;;;;2.78;0.90;;;;;;;;;;4856540;29;20088;-73
2022/08/12 12:43:19;;;;;;;2.83;0.90;;;;;;;;;;4856552;29;20053;-74
2022/08/12 12:46:09;;;;;;;4.63;1.02;;;;;;;;;;4856405;29;20049;-74
2022/08/12 12:48:40;;;;;;;2.15;0.73;;;;;;;;;;4861205;29;20053;-73
2022/08/12 12:51:14;;;;;;;7.72;1.30;;;;;;;;;;4863093;29;20065;-73
2022/08/12 12:54:06;;;;;;;2.30;1.05;;;;;;;;;;4856846;29;20061;-72
2022/08/12 12:56:40;;;;;;;2.17;0.85;;;;;;;;;;4855209;29;20053;-73
2022/08/12 12:59:11;;;;;;;6.72;1.55;;;;;;;;;;4856125;29;20514;-73
2022/08/12 13:02:06;;;;;;;3.13;0.85;;;;;;;;;;4856446;29;20053;-73
2022/08/12 13:04:36;;;;;;;1.15;0.57;;;;;;;;;;4856345;29;20049;-72
2022/08/12 13:07:06;;;;;;;12.65;4.45;;;;;;;;;;4856579;29;20065;-74
2022/08/12 13:09:37;;;;;;;0.98;0.65;;;;;;;;;;4856532;29;20050;-74
2022/08/12 13:12:14;;;;;;;1.95;0.80;;;;;;;;;;4856747;29;20057;-76
2022/08/12 13:14:48;;;;;;;2.53;0.65;;;;;;;;;;4856480;29;20045;-74
2022/08/12 13:17:20;;;;;;;1.13;0.80;;;;;;;;;;4855896;29;20054;-75
2022/08/12 13:19:54;;;;;;;7.10;0.98;;;;;;;;;;4855583;29;20049;-76
2022/08/12 13:22:24;;;;;;;3.97;0.57;;;;;;;;;;4865802;29;20053;-74
2022/08/12 13:24:55;;;;;;;14.13;1.35;;;;;;;;;;4862596;29;20049;-79
2022/08/12 13:27:28;;;;;;;2.70;0.98;;;;;;;;;;4854216;29;20486;-74
2022/08/12 13:30:08;;;;;;;5.93;0.80;;;;;;;;;;4855117;29;20045;-73
2022/08/12 13:32:45;;;;;;;1.73;0.52;;;;;;;;;;4840578;29;20064;-75
2022/08/12 13:35:32;;;;;;;3.78;1.23;;;;;;;;;;4842026;29;20050;-75
2022/08/12 13:38:37;;;;;;;6.32;3.63;;;;;;;;;;4870417;29;20049;-74
2022/08/12 13:44:04;;;;;;;1.60;0.73;;;;;;;;;;4855065;29;20049;-75
2022/08/12 13:46:42;;;;;;;3.95;0.82;;;;;;;;;;4855521;29;20049;-74
2022/08/12 13:49:26;;;;;;;1.83;0.65;;;;;;;;;;4854846;29;20069;-74
2022/08/12 13:52:18;;;;;;;1.55;0.65;;;;;;;;;;4854854;29;20053;-77
2022/08/12 13:54:48;;;;;;;2.75;0.80;;;;;;;;;;4855065;29;20053;-78
2022/08/12 13:57:42;;;;;;;1.15;0.60;;;;;;;;;;4855424;29;20057;-75
2022/08/12 14:00:15;;;;;;;4.75;1.02;;;;;;;;;;4855516;29;20533;-74
2022/08/12 14:02:46;;;;;;;2.40;0.60;;;;;;;;;;4854166;29;20057;-75
2022/08/12 14:05:21;;;;;;;2.80;0.70;;;;;;;;;;4855542;29;20053;-75
2022/08/12 14:08:14;;;;;;;1.92;0.52;;;;;;;;;;4853524;29;20080;-75
2022/08/12 14:10:52;;;;;;;2.92;0.88;;;;;;;;;;4855141;29;20057;-75
2022/08/12 14:13:25;;;;;;;3.55;0.60;;;;;;;;;;4854962;29;20533;-73
2022/08/12 14:16:17;;;;;;;3.25;0.70;;;;;;;;;;4854593;29;20061;-75
2022/08/12 14:19:07;;;;;;;4.50;0.70;;;;;;;;;;4854103;29;20518;-73
2022/08/12 14:21:53;;;;;;;1.10;0.52;;;;;;;;;;4855230;29;20041;-75
2022/08/12 14:24:36;;;;;;;2.78;0.65;;;;;;;;;;4854548;29;20052;-75
2022/08/12 14:27:11;;;;;;;2.92;0.70;;;;;;;;;;4854583;29;20136;-76
2022/08/12 14:29:45;;;;;;;8.00;1.08;;;;;;;;;;4854690;29;20052;-73
2022/08/12 14:32:35;;;;;;;5.53;1.73;;;;;;;;;;4854835;29;20049;-76
2022/08/12 14:35:07;;;;;;;6.18;1.23;;;;;;;;;;4853246;29;20056;-77
2022/08/12 14:37:42;;;;;;;2.38;0.45;;;;;;;;;;4854242;29;20049;-74
2022/08/12 14:40:29;;;;;;;0.50;0.40;;;;;;;;;;4854827;29;20054;-75
2022/08/12 14:43:01;;;;;;;5.28;1.25;;;;;;;;;;4854403;29;20505;-73
2022/08/12 14:45:37;;;;;;;4.07;0.63;;;;;;;;;;4854747;29;20519;-74
2022/08/12 14:48:19;;;;;;;13.85;1.98;;;;;;;;;;4855177;29;20053;-75
2022/08/12 14:50:53;;;;;;;2.05;0.50;;;;;;;;;;4854529;29;20055;-73
2022/08/12 14:53:45;;;;;;;7.60;1.13;;;;;;;;;;4854289;29;20046;-74
2022/08/12 14:56:35;;;;;;;0.90;0.35;;;;;;;;;;4853005;29;20060;-73
2022/08/12 15:02:27;;;;;;;1.25;0.55;;;;;;;;;;4854521;29;20057;-72
2022/08/12 15:05:01;;;;;;;3.60;0.50;;;;;;;;;;4853621;29;20541;-75
2022/08/12 15:07:31;;;;;;;2.78;1.38;;;;;;;;;;4853385;29;20049;-72
2022/08/12 15:10:19;;;;;;;7.15;0.80;;;;;;;;;;4853855;29;20052;-76
2022/08/12 15:13:05;;;;;;;5.32;0.80;;;;;;;;;;4854091;29;20057;-74
2022/08/12 15:15:41;;;;;;;2.03;0.70;;;;;;;;;;4854400;29;20434;-73
2022/08/12 15:18:16;;;;;;;3.65;0.55;;;;;;;;;;4854453;29;20065;-72
2022/08/12 15:20:54;;;;;;;0.55;0.40;;;;;;;;;;4853468;29;20057;-75
2022/08/12 15:23:30;;;;;;;5.30;0.80;;;;;;;;;;4852763;29;20111;-76
2022/08/12 15:26:20;;;;;;;1.45;1.00;;;;;;;;;;4854278;29;20053;-72
2022/08/12 15:28:57;;;;;;;1.45;0.47;;;;;;;;;;4854275;29;20053;-71
2022/08/12 15:31:27;;;;;;;3.85;0.70;;;;;;;;;;4852606;29;20053;-73
2022/08/12 15:34:17;;;;;;;4.75;0.93;;;;;;;;;;4854352;29;20676;-78
2022/08/12 15:36:47;;;;;;;1.35;0.50;;;;;;;;;;4854272;29;20050;-75
2022/08/12 15:39:24;;;;;;;1.15;0.60;;;;;;;;;;4853544;29;20058;-74
2022/08/12 15:41:55;;;;;;;0.98;0.40;;;;;;;;;;4855511;29;20410;-72
2022/08/12 15:44:30;;;;;;;2.95;0.77;;;;;;;;;;4858865;29;20056;-73
2022/08/12 15:47:10;;;;;;;2.30;1.08;;;;;;;;;;4854487;29;20472;-73
2022/08/12 15:49:44;;;;;;;5.00;0.75;;;;;;;;;;4854007;29;20057;-75
2022/08/12 15:52:29;;;;;;;2.10;0.80;;;;;;;;;;4853818;29;20061;-72
2022/08/12 15:54:58;;;;;;;2.22;0.70;;;;;;;;;;4853194;29;20417;-73
2022/08/12 15:57:40;;;;;;;3.47;0.63;;;;;;;;;;4853334;29;20057;-74
2022/08/12 16:00:23;;;;;;;2.20;0.82;;;;;;;;;;4853928;29;20057;-74
2022/08/12 16:03:09;;;;;;;2.75;1.40;;;;;;;;;;4853274;29;20054;-73
2022/08/12 16:05:47;;;;;;;3.97;1.42;;;;;;;;;;4854024;29;20042;-74
2022/08/12 16:08:38;;;;;;;13.80;3.55;;;;;;;;;;4853854;29;20561;-74
2022/08/12 16:11:12;;;;;;;2.63;0.80;;;;;;;;;;4852854;29;20053;-73
2022/08/12 16:13:46;;;;;;;4.45;0.70;;;;;;;;;;4853791;29;20046;-72
2022/08/12 16:16:17;;;;;;;1.17;0.70;;;;;;;;;;4854363;29;20429;-74
2022/08/12 16:18:56;;;;;;;1.48;0.88;;;;;;;;;;4856800;29;20510;-74
2022/08/12 16:21:46;;;;;;;3.67;1.00;;;;;;;;;;4856907;29;20049;-73
2022/08/12 16:24:20;;;;;;;2.05;1.25;;;;;;;;;;4857209;29;20060;-73
2022/08/12 16:26:51;;;;;;;9.70;2.22;;;;;;;;;;4856868;29;20049;-74
2022/08/12 16:29:31;;;;;;;1.95;1.50;;;;;;;;;;4857102;29;20045;-74
2022/08/12 16:32:22;;;;;;;20.58;3.17;;;;;;;;;;4857179;29;20430;-73
2022/08/12 16:35:00;;;;;;;5.22;1.70;;;;;;;;;;4856911;29;20045;-72
2022/08/12 16:37:33;;;;;;;2.95;1.42;;;;;;;;;;4856790;29;20064;-72
2022/08/12 16:40:23;;;;;;;2.83;0.90;;;;;;;;;;4856405;29;20422;-73
2022/08/12 16:42:56;;;;;;;2.97;0.70;;;;;;;;;;4856490;29;20518;-72
2022/08/12 16:45:32;;;;;;;2.22;1.20;;;;;;;;;;4856161;29;20056;-72
2022/08/12 16:48:25;;;;;;;3.05;2.10;;;;;;;;;;4856642;29;20054;-73
2022/08/12 16:51:05;;;;;;;3.20;1.35;;;;;;;;;;4856471;29;20504;-75
2022/08/12 16:53:39;;;;;;;;;;;;;;;;;;4856791;29;20056;-72
2022/08/12 16:56:14;;;;;;;3.35;1.02;;;;;;;;;;4854821;29;19924;-79
2022/08/12 16:58:46;;;;;;;1.83;1.00;;;;;;;;;;4855294;29;20080;-72
2022/08/12 17:01:20;;;;;;;113.18;20.67;;;;;;;;;;4856912;29;20053;-74
2022/08/12 17:04:07;;;;;;;21.90;4.38;;;;;;;;;;4855939;29;20078;-73
2022/08/12 17:06:42;;;;;;;2.40;0.80;;;;;;;;;;4855830;29;20045;-74
2022/08/12 17:09:12;;;;;;;;;;;;;;;;;;4855258;29;20060;-74
2022/08/12 17:11:47;;;;;;;146.35;28.55;;;;;;;;;;4856671;29;20242;-74
2022/08/12 17:14:21;;;;;;;116.38;22.05;;;;;;;;;;4856894;29;20053;-72
2022/08/12 17:16:58;;;;;;;209.55;37.15;;;;;;;;;;4856311;29;20045;-72
2022/08/12 17:19:34;;;;;;;42.63;9.23;;;;;;;;;;4856414;29;20049;-73
2022/08/12 17:22:24;;;;;;;2.30;0.80;;;;;;;;;;4856102;29;20509;-72
2022/08/12 17:25:00;;;;;;;1.15;0.80;;;;;;;;;;4855905;29;20068;-72
2022/08/12 17:27:38;;;;;;;3.40;1.77;;;;;;;;;;4855519;29;20409;-74
2022/08/12 17:30:12;;;;;;;18.63;3.78;;;;;;;;;;4855681;29;20507;-72
2022/08/12 17:32:45;;;;;;;9.10;2.38;;;;;;;;;;4855315;29;20485;-72
2022/08/12 17:35:31;;;;;;;1.65;0.80;;;;;;;;;;4855703;29;20057;-72
2022/08/12 17:38:12;;;;;;;2.45;0.90;;;;;;;;;;4855237;29;20543;-74
2022/08/12 17:40:46;;;;;;;4.93;1.00;;;;;;;;;;4856339;29;20060;-75
2022/08/12 17:43:19;;;;;;;2.63;0.70;;;;;;;;;;4856259;29;20057;-74
2022/08/12 17:46:09;;;;;;;330.23;62.25;;;;;;;;;;4856479;29;20049;-73